AirNav   ATP
 
 533 users online  

23D Karlstad Municipal Airport
Karlstad, Minnesota, USA


FAA INFORMATION EFFECTIVE 09 NOVEMBER 2017

Location

FAA Identifier: 23D
Lat/Long: 48-34-39.3650N / 096-32-28.5650W
48-34.656083N / 096-32.476083W
48.5776014 / -96.5412681
(estimated)
Elevation: 1025 ft. / 312 m (estimated)
Variation: 06E (1985)
From city: 1 mile W of KARLSTAD, MN
Time zone: UTC -6 (UTC -5 during Daylight Saving Time)
Zip code: 56732

Airport Operations

Airport use: Open to the public
Activation date: 03/1957
Control tower: no
ARTCC: MINNEAPOLIS CENTER
FSS: PRINCETON FLIGHT SERVICE STATION
NOTAMs facility: PNM (NOTAM-D service available)
Attendance: UNATNDD
Wind indicator: lighted
Segmented circle: no
Lights: SS-SR

Airport Communications

CTAF: 122.9
WX AWOS-3 at HCO (19 nm NW): 126.475 (218-843-2415)

Nearby radio navigation aids

VOR radial/distance  VOR name  Freq  Var
HMLr119/28.7HUMBOLDT VORTAC112.4009E
TVFr327/33.6THIEF RIVER FALLS VOR/DME108.4008E
ROXr239/37.4ROSEAU VOR/DME108.8005E

 
NDB name  Hdg/Dist  Freq  Var  ID
PINEY PINECREEK217/33.434205EPFT .--. ..-. -

Airport Services

Parking: tiedowns

Runway Information

Runway 17/35

Dimensions: 2606 x 159 ft. / 794 x 48 m
Surface: turf, in good condition
Runway edge lights: non-standard
RWY 17/35 NSTD LIRL; 400 FEET BETWEEN LIGHTS.
Runway edge markings: 17/35 MKD WITH YELLOW CONES.
RUNWAY 17  RUNWAY 35
Latitude: 48-34.870100N48-34.442050N
Longitude: 096-32.488017W096-32.464150W
Elevation: 1025.0 ft.1023.2 ft.
Gradient: 0.1%0.1%
Traffic pattern: leftleft
Obstructions: 20 ft. tree, 172 ft. from runway, 132 ft. left of centerline, 8:1 slope to clear14 ft. road, 135 ft. from runway, 130 ft. left of centerline, 9:1 slope to clear
RY 35 ROAD: SIGNS POSTED TO CONTROL TFC.

Airport Ownership and Management from official FAA records

Ownership: Publicly-owned
Owner: CITY OF KARLSTAD
BOX 299
KARLSTAD, MN 56732
Phone 218-436-2178
Manager: SUE DUFAULT
BOX 299
KARLSTAD, MN 56732
Phone 218-436-2178

Airport Operational Statistics

Aircraft based on the field: 2
Single engine airplanes: 2
    
Aircraft operations: avg 86/week *
56% transient general aviation
44% local general aviation
* for 12-month period ending 30 June 2015

Instrument Procedures

There are no published instrument procedures at 23D.

Some nearby airports with instrument procedures:

KHCO - Hallock Municipal Airport (19 nm NW)
D37 - Warren Municipal Airport (24 nm S)
48Y - Piney Pinecreek Border Airport (34 nm NE)
KTVF - Thief River Falls Regional Airport (34 nm SE)
KGAF - Hutson Field Airport (35 nm W)
 
Loc | Ops | Rwys | IFR | FBO | Links
Com | Nav | Svcs | Stats | Notes


 
Area around 23D (Karlstad Municipal Airport)
 
Road maps at: MapQuest Bing Google
 
Aerial photo
No photo
 
Sectional chart

 
Airport distance calculator
Flying to Karlstad Municipal Airport? Find the distance to fly.

From to 23D

Sunrise and sunset
Times for 19-Nov-2017
 Local
(UTC-6)
 Zulu
(UTC)
Morning civil twilight07:0713:07
Sunrise07:4213:42
Sunset16:4222:42
Evening civil twilight17:1623:16

Current date and time
Zulu (UTC)  19-Nov-2017 12:27:56
Local (UTC-6)  19-Nov-2017 06:27:56
 
METAR
KHCO 
19nm NW 
191214Z AUTO 18005KT 10SM OVC075 M11/M13 A2992 RMK AO2
KTVF 
34nm SE 
191201Z AUTO 20004KT 10SM CLR M11/M13 A2995 RMK AO2 SLP167 T11111128 11106 21128 58011 FZRANO
KGAF 
35nm W 
190915Z AUTO 25004KT 10SM CLR M13/M15 A3001 RMK AO2 PWINO
KROX 
37nm NE 
191215Z AUTO 22005KT 10SM OVC080 M10/M13 A2991 RMK AO2
TAF
KTVF 
34nm SE 
191137Z 1912/2012 21005KT P6SM BKN100 FM191500 19006KT P6SM SCT130 FM192100 26004KT P6SM SCT250 FM200400 15004KT P6SM SCT250 FM201000 17008KT P6SM SCT200
NOTAMs
Click for the latest NOTAMs
NOTAMs are issued by the DoD/FAA and will open in a separate window not controlled by AirNav.

 

 
 

Would you like to see your business listed on this page?

 If your business provides an interesting product or service to pilots, flight crews, aircraft, or users of the Karlstad Municipal Airport, you should consider listing it here.  To start the listing process, click on the button below
 
Add a business
 

Other Pages about Karlstad Municipal Airport

PDF page(s) from the Minnesota Airport Directory
 
Update a link
 
Copyright © AirNav, LLC. All rights reserved. Privacy Policy  Contact